Nearby METAR Reports

 

PAEN - Kenai, Alaska, USA
Distance from station: ESE 2mi, 4km
Updated: Wed, 19-Jun-2019 4:53pm AKDT
Clear
Clear
 Wind from SW
Wind: SW 9 mph , 15 km/h
Temperature: 61°F , 16°C
Dew Point: 48°F , 9°C
Humidity: 63%
Barometer: 30.22 inHg , 1023.4 hPa
Clouds: Clear
Visibility: 10 miles , 16 km
2019/06/20 00:53 PAEN 200053Z 22008KT 10SM CLR 16/09 A3022 RMK AO2 SLP234 T01610089
PASX - Soldotna, Alaska, USA
Distance from station: SE 12mi, 19km
Updated: Wed, 19-Jun-2019 4:56pm AKDT
Clear
Clear
 Wind from W
Wind: W 10 mph , 17 km/h
Temperature: 66°F , 19°C
Dew Point: 41°F , 5°C
Humidity: 40%
Barometer: 30.23 inHg , 1023.7 hPa
Clouds: Clear
Visibility: 10 miles , 16 km
2019/06/20 00:56 PASX 200056Z AUTO 28009KT 10SM CLR 19/05 A3023 RMK AO2 SLP246 T01890050
 
PANC - Anchorage Intl, Alaska, USA
Distance from station: NE 59mi, 96km
Updated: Wed, 19-Jun-2019 4:53pm AKDT
Partly cloudy
Partly cloudy
 Wind from WNW
Wind: WNW 7 mph , 11 km/h
Temperature: 64°F , 18°C
Dew Point: 46°F , 8°C
Humidity: 52%
Barometer: 30.20 inHg , 1022.7 hPa
Clouds: Partly cloudy
Visibility: 10 miles , 16 km
Cloud details: Few Clouds 5000 ft
Few Clouds 9000 ft
Partly cloudy 20000 ft
2019/06/20 00:53 PANC 200053Z 29006KT 10SM FEW050 FEW090 SCT200 18/08 A3020 RMK AO2 SLP226 T01830078
PALH - Anchorage/Lake H, Alaska, USA
Distance from station: NE 61mi, 99km
Updated: Wed, 19-Jun-2019 4:53pm AKDT
Clear
Clear
 Wind from W
Wind: W 8 mph , 13 km/h
Temperature: 66°F , 19°C
Dew Point: 45°F , 7°C
Humidity: 46%
Barometer: 30.20 inHg , 1022.7 hPa
Clouds: Clear
Visibility: 10 miles , 16 km
2019/06/20 00:53 PALH 200053Z 28007KT 10SM CLR 19/07 A3020 RMK AO2 SLP228 T01940072
 
PAHO - Homer, Alaska, USA
Distance from station: S 66mi, 106km
Updated: Wed, 19-Jun-2019 4:53pm AKDT
Clear
Clear
 Wind from WSW
Wind: WSW 17 mph , 28 km/h
Temperature: 59°F , 15°C
Dew Point: 46°F , 8°C
Humidity: 63%
Barometer: 30.24 inHg , 1024 hPa
Clouds: Clear
Visibility: 10 miles , 16 km
2019/06/20 00:53 PAHO 200053Z 24015KT 10SM CLR 15/08 A3024 RMK AO2 SLP241 T01500078
PAMR - Anchorage/Merril, Alaska, USA
Distance from station: NE 66mi, 106km
Updated: Wed, 19-Jun-2019 4:53pm AKDT
Clear
Clear
 Wind from W
Wind: W 6 mph , 9 km/h
Temperature: 68°F , 20°C
Dew Point: 45°F , 7°C
Humidity: 43%
Barometer: 30.19 inHg , 1022.4 hPa
Clouds: Clear
Visibility: 10 miles , 16 km
2019/06/20 00:53 PAMR 200053Z 26005KT 10SM CLR 20/07 A3019 RMK AO2 SLP224 T02000067
 
PAED - Elmendorf Afb, Alaska, USA
Distance from station: NE 69mi, 110km
Updated: Wed, 19-Jun-2019 4:56pm AKDT
Partly cloudy
Partly cloudy
 Wind from WSW
Wind: WSW 10 mph , 17 km/h
Temperature: 66°F , 19°C
Dew Point: 45°F , 7°C
Humidity: 46%
Barometer: 30.19 inHg , 1022.4 hPa
Clouds: Partly cloudy
Visibility: 10 miles , 16 km
Cloud details: Few Clouds 5000 ft
Partly cloudy 20000 ft
2019/06/20 00:56 PAED 200056Z 25009KT 10SM FEW050 SCT200 19/07 A3019 RMK AO2A SLP219 T0188006
PAWD - Seward, Alaska, USA
Distance from station: ESE 71mi, 115km
Updated: Wed, 19-Jun-2019 4:53pm AKDT
Clear
Clear
 Wind from SSW
Wind: SSW 14 mph , 22 km/h, Gust: 22 mph , 35 km/h
Temperature: 64°F , 18°C
Dew Point: 48°F , 9°C
Humidity: 56%
Barometer: 30.19 inHg , 1022.4 hPa
Clouds: Clear
Visibility: 10 miles , 16 km
2019/06/20 00:53 PAWD 200053Z AUTO 20012G19KT 10SM CLR 18/09 A3019 RMK AO2 SLP224 T01780089 TSNO
 
PASC - Deadhorse, Alaska, USA
Distance from station: ENE 670mi, 1078km
Updated: Wed, 19-Jun-2019 4:53pm AKDT
Clear
Clear
 Wind from ENE
Wind: ENE 14 mph , 22 km/h
Temperature: 46°F , 8°C
Wind Chill: 40°F , 4°C
Dew Point: 37°F , 3°C
Humidity: 71%
Barometer: 30.18 inHg , 1022 hPa
Clouds: Clear
Visibility: 10 miles , 16 km
2019/06/20 00:53 PASC 200053Z 06012KT 10SM CLR 08/03 A3018 RMK AO2 SLP222 T00780033
PAAD - Point Thomson, Alaska, USA
Distance from station: ENE 680mi, 1094km
Updated: Wed, 19-Jun-2019 4:55pm AKDT
Mist, Overcast
Mist, Overcast
 Wind from E
Wind: E 14 mph , 22 km/h
Temperature: 37°F , 3°C
Wind Chill: 28°F , -2°C
Dew Point: 36°F , 2°C
Humidity: 93%
Barometer: 30.20 inHg , 1022.7 hPa
Summary: Mist
Clouds: Overcast
Visibility: 2 1/2 miles , 4 km
Cloud details: Overcast 200 ft
2019/06/20 00:55 PAAD 200055Z AUTO 08012KT 2 1/2SM BR OVC002 03/02 A3020 RMK AO2 VIS 1 1/2V5 T00260020


kenaipeople.com website

Dans Automotive

Lower Peninsula Power Sports

Freddies RoadHouse

Alaska Weather Net